sensor_id;sensor_type;location;lat;lon;timestamp;P1;durP1;ratioP1;P2;durP2;ratioP2
11338;SDS011;5724;42.684;23.252;2022-09-02T00:00:48;13.30;;;12.15;;
11338;SDS011;5724;42.684;23.252;2022-09-02T00:03:16;14.50;;;13.05;;
11338;SDS011;5724;42.684;23.252;2022-09-02T00:05:43;13.30;;;12.40;;
11338;SDS011;5724;42.684;23.252;2022-09-02T00:08:09;13.52;;;11.93;;
11338;SDS011;5724;42.684;23.252;2022-09-02T00:10:36;14.38;;;13.05;;
11338;SDS011;5724;42.684;23.252;2022-09-02T00:13:04;14.63;;;12.98;;
11338;SDS011;5724;42.684;23.252;2022-09-02T00:15:31;13.73;;;12.57;;
11338;SDS011;5724;42.684;23.252;2022-09-02T00:18:15;13.30;;;12.18;;
11338;SDS011;5724;42.684;23.252;2022-09-02T00:20:43;13.73;;;12.52;;
11338;SDS011;5724;42.684;23.252;2022-09-02T00:23:10;15.13;;;12.70;;
11338;SDS011;5724;42.684;23.252;2022-09-02T00:25:37;13.75;;;12.60;;
11338;SDS011;5724;42.684;23.252;2022-09-02T00:28:03;13.55;;;12.55;;
11338;SDS011;5724;42.684;23.252;2022-09-02T00:30:30;13.52;;;12.13;;
11338;SDS011;5724;42.684;23.252;2022-09-02T00:32:56;13.43;;;12.43;;
11338;SDS011;5724;42.684;23.252;2022-09-02T00:35:22;12.85;;;11.85;;
11338;SDS011;5724;42.684;23.252;2022-09-02T00:37:48;14.60;;;12.57;;
11338;SDS011;5724;42.684;23.252;2022-09-02T00:40:13;13.77;;;12.52;;
11338;SDS011;5724;42.684;23.252;2022-09-02T00:42:40;13.18;;;12.23;;
11338;SDS011;5724;42.684;23.252;2022-09-02T00:45:06;13.73;;;12.52;;
11338;SDS011;5724;42.684;23.252;2022-09-02T00:47:33;13.15;;;12.07;;
11338;SDS011;5724;42.684;23.252;2022-09-02T00:50:01;14.95;;;13.70;;
11338;SDS011;5724;42.684;23.252;2022-09-02T00:52:34;14.20;;;13.02;;
11338;SDS011;5724;42.684;23.252;2022-09-02T00:55:05;14.68;;;13.30;;
11338;SDS011;5724;42.684;23.252;2022-09-02T00:57:36;14.43;;;13.35;;
11338;SDS011;5724;42.684;23.252;2022-09-02T01:00:07;17.80;;;13.52;;
11338;SDS011;5724;42.684;23.252;2022-09-02T01:02:33;14.23;;;13.10;;
11338;SDS011;5724;42.684;23.252;2022-09-02T01:05:02;13.10;;;12.23;;
11338;SDS011;5724;42.684;23.252;2022-09-02T01:07:31;13.23;;;12.13;;
11338;SDS011;5724;42.684;23.252;2022-09-02T01:10:07;13.73;;;12.57;;
11338;SDS011;5724;42.684;23.252;2022-09-02T01:12:37;12.70;;;11.68;;
11338;SDS011;5724;42.684;23.252;2022-09-02T01:15:03;13.35;;;11.98;;
11338;SDS011;5724;42.684;23.252;2022-09-02T01:17:31;13.90;;;12.45;;
11338;SDS011;5724;42.684;23.252;2022-09-02T01:20:00;13.55;;;12.60;;
11338;SDS011;5724;42.684;23.252;2022-09-02T01:22:30;13.95;;;12.80;;
11338;SDS011;5724;42.684;23.252;2022-09-02T01:24:59;13.90;;;12.48;;
11338;SDS011;5724;42.684;23.252;2022-09-02T01:27:29;11.75;;;10.95;;
11338;SDS011;5724;42.684;23.252;2022-09-02T01:29:57;12.55;;;11.50;;
11338;SDS011;5724;42.684;23.252;2022-09-02T01:32:24;11.98;;;11.20;;
11338;SDS011;5724;42.684;23.252;2022-09-02T01:34:51;10.85;;;9.93;;
11338;SDS011;5724;42.684;23.252;2022-09-02T01:37:17;10.05;;;9.35;;
11338;SDS011;5724;42.684;23.252;2022-09-02T01:39:43;8.63;;;7.07;;
11338;SDS011;5724;42.684;23.252;2022-09-02T01:42:09;6.50;;;5.93;;
11338;SDS011;5724;42.684;23.252;2022-09-02T01:44:35;5.38;;;5.07;;
11338;SDS011;5724;42.684;23.252;2022-09-02T01:47:19;6.40;;;6.00;;
11338;SDS011;5724;42.684;23.252;2022-09-02T01:49:47;4.10;;;4.00;;
11338;SDS011;5724;42.684;23.252;2022-09-02T01:52:14;4.47;;;4.28;;
11338;SDS011;5724;42.684;23.252;2022-09-02T01:54:40;4.82;;;4.53;;
11338;SDS011;5724;42.684;23.252;2022-09-02T01:57:06;5.50;;;5.10;;
11338;SDS011;5724;42.684;23.252;2022-09-02T01:59:32;4.95;;;4.65;;
11338;SDS011;5724;42.684;23.252;2022-09-02T02:01:57;5.38;;;5.00;;
11338;SDS011;5724;42.684;23.252;2022-09-02T02:04:24;6.05;;;5.85;;
11338;SDS011;5724;42.684;23.252;2022-09-02T02:06:50;5.25;;;4.82;;
11338;SDS011;5724;42.684;23.252;2022-09-02T02:09:16;6.68;;;6.25;;
11338;SDS011;5724;42.684;23.252;2022-09-02T02:11:42;7.45;;;7.00;;
11338;SDS011;5724;42.684;23.252;2022-09-02T02:14:08;7.28;;;6.88;;
11338;SDS011;5724;42.684;23.252;2022-09-02T02:16:34;7.18;;;6.55;;
11338;SDS011;5724;42.684;23.252;2022-09-02T02:19:00;6.85;;;6.45;;
11338;SDS011;5724;42.684;23.252;2022-09-02T02:21:26;5.38;;;5.07;;
11338;SDS011;5724;42.684;23.252;2022-09-02T02:23:51;6.32;;;5.85;;
11338;SDS011;5724;42.684;23.252;2022-09-02T02:26:17;6.82;;;6.40;;
11338;SDS011;5724;42.684;23.252;2022-09-02T02:28:42;5.45;;;5.00;;
11338;SDS011;5724;42.684;23.252;2022-09-02T02:31:08;5.72;;;5.53;;
11338;SDS011;5724;42.684;23.252;2022-09-02T02:33:34;5.30;;;5.00;;
11338;SDS011;5724;42.684;23.252;2022-09-02T02:36:00;6.03;;;5.35;;
11338;SDS011;5724;42.684;23.252;2022-09-02T02:38:28;4.72;;;4.53;;
11338;SDS011;5724;42.684;23.252;2022-09-02T02:40:54;5.35;;;5.15;;
11338;SDS011;5724;42.684;23.252;2022-09-02T02:43:22;5.45;;;5.15;;
11338;SDS011;5724;42.684;23.252;2022-09-02T02:45:48;6.25;;;5.90;;
11338;SDS011;5724;42.684;23.252;2022-09-02T02:48:14;5.78;;;5.57;;
11338;SDS011;5724;42.684;23.252;2022-09-02T02:50:39;5.55;;;5.35;;
11338;SDS011;5724;42.684;23.252;2022-09-02T02:53:06;5.35;;;4.95;;
11338;SDS011;5724;42.684;23.252;2022-09-02T02:55:32;6.18;;;5.85;;
11338;SDS011;5724;42.684;23.252;2022-09-02T02:57:58;5.60;;;5.40;;
11338;SDS011;5724;42.684;23.252;2022-09-02T03:00:26;5.05;;;4.85;;
11338;SDS011;5724;42.684;23.252;2022-09-02T03:02:55;6.47;;;6.18;;
11338;SDS011;5724;42.684;23.252;2022-09-02T03:05:22;6.38;;;6.07;;
11338;SDS011;5724;42.684;23.252;2022-09-02T03:07:48;6.35;;;5.95;;
11338;SDS011;5724;42.684;23.252;2022-09-02T03:10:13;6.65;;;6.10;;
11338;SDS011;5724;42.684;23.252;2022-09-02T03:12:39;6.75;;;6.32;;
11338;SDS011;5724;42.684;23.252;2022-09-02T03:15:06;6.22;;;5.90;;
11338;SDS011;5724;42.684;23.252;2022-09-02T03:17:32;6.70;;;6.25;;
11338;SDS011;5724;42.684;23.252;2022-09-02T03:19:58;6.35;;;6.05;;
11338;SDS011;5724;42.684;23.252;2022-09-02T03:22:24;7.10;;;6.65;;
11338;SDS011;5724;42.684;23.252;2022-09-02T03:24:51;7.28;;;6.90;;
11338;SDS011;5724;42.684;23.252;2022-09-02T03:27:16;6.28;;;5.97;;
11338;SDS011;5724;42.684;23.252;2022-09-02T03:29:42;6.78;;;6.32;;
11338;SDS011;5724;42.684;23.252;2022-09-02T03:32:09;7.03;;;6.63;;
11338;SDS011;5724;42.684;23.252;2022-09-02T03:34:35;7.15;;;6.70;;
11338;SDS011;5724;42.684;23.252;2022-09-02T03:37:01;6.93;;;6.63;;
11338;SDS011;5724;42.684;23.252;2022-09-02T03:39:26;6.78;;;6.43;;
11338;SDS011;5724;42.684;23.252;2022-09-02T03:41:52;7.40;;;6.88;;
11338;SDS011;5724;42.684;23.252;2022-09-02T03:44:18;7.35;;;6.82;;
11338;SDS011;5724;42.684;23.252;2022-09-02T03:46:43;7.03;;;6.50;;
11338;SDS011;5724;42.684;23.252;2022-09-02T03:49:09;7.60;;;7.00;;
11338;SDS011;5724;42.684;23.252;2022-09-02T03:51:38;7.75;;;7.15;;
11338;SDS011;5724;42.684;23.252;2022-09-02T03:54:05;7.60;;;7.10;;
11338;SDS011;5724;42.684;23.252;2022-09-02T03:56:32;7.22;;;6.72;;
11338;SDS011;5724;42.684;23.252;2022-09-02T03:58:58;8.40;;;7.90;;
11338;SDS011;5724;42.684;23.252;2022-09-02T04:01:24;8.63;;;7.68;;
11338;SDS011;5724;42.684;23.252;2022-09-02T04:03:50;7.22;;;6.85;;
11338;SDS011;5724;42.684;23.252;2022-09-02T04:06:17;8.13;;;7.60;;
11338;SDS011;5724;42.684;23.252;2022-09-02T04:08:45;8.35;;;7.63;;
11338;SDS011;5724;42.684;23.252;2022-09-02T04:11:12;9.13;;;8.50;;
11338;SDS011;5724;42.684;23.252;2022-09-02T04:13:41;9.43;;;8.77;;
11338;SDS011;5724;42.684;23.252;2022-09-02T04:16:08;8.50;;;7.93;;
11338;SDS011;5724;42.684;23.252;2022-09-02T04:18:54;8.57;;;8.18;;
11338;SDS011;5724;42.684;23.252;2022-09-02T04:21:21;9.00;;;8.50;;
11338;SDS011;5724;42.684;23.252;2022-09-02T04:23:48;9.55;;;8.85;;
11338;SDS011;5724;42.684;23.252;2022-09-02T04:26:14;8.75;;;8.15;;
11338;SDS011;5724;42.684;23.252;2022-09-02T04:28:41;9.15;;;8.57;;
11338;SDS011;5724;42.684;23.252;2022-09-02T04:31:08;10.13;;;9.48;;
11338;SDS011;5724;42.684;23.252;2022-09-02T04:33:35;9.80;;;9.13;;
11338;SDS011;5724;42.684;23.252;2022-09-02T04:36:08;10.45;;;9.45;;
11338;SDS011;5724;42.684;23.252;2022-09-02T04:38:35;10.27;;;9.45;;
11338;SDS011;5724;42.684;23.252;2022-09-02T04:41:34;13.95;;;12.93;;
11338;SDS011;5724;42.684;23.252;2022-09-02T04:43:54;10.63;;;9.93;;
11338;SDS011;5724;42.684;23.252;2022-09-02T04:46:22;10.50;;;9.77;;
11338;SDS011;5724;42.684;23.252;2022-09-02T04:48:48;10.35;;;9.68;;
11338;SDS011;5724;42.684;23.252;2022-09-02T04:51:19;11.43;;;10.82;;
11338;SDS011;5724;42.684;23.252;2022-09-02T04:53:47;11.25;;;10.45;;
11338;SDS011;5724;42.684;23.252;2022-09-02T04:56:15;10.98;;;10.07;;
11338;SDS011;5724;42.684;23.252;2022-09-02T04:58:43;10.75;;;10.18;;
11338;SDS011;5724;42.684;23.252;2022-09-02T05:01:10;11.40;;;10.60;;
11338;SDS011;5724;42.684;23.252;2022-09-02T05:03:41;12.02;;;11.00;;
11338;SDS011;5724;42.684;23.252;2022-09-02T05:06:09;11.55;;;10.75;;
11338;SDS011;5724;42.684;23.252;2022-09-02T05:08:36;11.25;;;10.50;;
11338;SDS011;5724;42.684;23.252;2022-09-02T05:11:05;10.90;;;10.20;;
11338;SDS011;5724;42.684;23.252;2022-09-02T05:13:32;11.00;;;10.23;;
11338;SDS011;5724;42.684;23.252;2022-09-02T05:15:57;11.15;;;10.45;;
11338;SDS011;5724;42.684;23.252;2022-09-02T05:18:23;12.20;;;11.23;;
11338;SDS011;5724;42.684;23.252;2022-09-02T05:20:48;11.13;;;10.43;;
11338;SDS011;5724;42.684;23.252;2022-09-02T05:23:14;10.05;;;9.43;;
11338;SDS011;5724;42.684;23.252;2022-09-02T05:25:40;10.55;;;9.85;;
11338;SDS011;5724;42.684;23.252;2022-09-02T05:28:06;9.93;;;9.25;;
11338;SDS011;5724;42.684;23.252;2022-09-02T05:30:38;10.57;;;9.82;;
11338;SDS011;5724;42.684;23.252;2022-09-02T05:33:05;10.23;;;9.50;;
11338;SDS011;5724;42.684;23.252;2022-09-02T05:35:32;11.18;;;9.88;;
11338;SDS011;5724;42.684;23.252;2022-09-02T05:37:58;12.70;;;11.48;;
11338;SDS011;5724;42.684;23.252;2022-09-02T05:40:24;12.63;;;11.32;;
11338;SDS011;5724;42.684;23.252;2022-09-02T05:42:50;11.80;;;10.80;;
11338;SDS011;5724;42.684;23.252;2022-09-02T05:45:16;12.98;;;11.88;;
11338;SDS011;5724;42.684;23.252;2022-09-02T05:47:41;13.50;;;12.30;;
11338;SDS011;5724;42.684;23.252;2022-09-02T05:50:07;12.60;;;11.38;;
11338;SDS011;5724;42.684;23.252;2022-09-02T05:52:33;12.98;;;11.90;;
11338;SDS011;5724;42.684;23.252;2022-09-02T05:54:58;12.32;;;11.63;;
11338;SDS011;5724;42.684;23.252;2022-09-02T05:57:24;13.40;;;12.13;;
11338;SDS011;5724;42.684;23.252;2022-09-02T05:59:51;12.88;;;11.88;;
11338;SDS011;5724;42.684;23.252;2022-09-02T06:02:21;15.27;;;12.07;;
11338;SDS011;5724;42.684;23.252;2022-09-02T06:04:48;11.18;;;10.48;;
11338;SDS011;5724;42.684;23.252;2022-09-02T06:07:17;12.48;;;11.35;;
11338;SDS011;5724;42.684;23.252;2022-09-02T06:09:45;12.00;;;10.93;;
11338;SDS011;5724;42.684;23.252;2022-09-02T06:12:11;10.95;;;9.88;;
11338;SDS011;5724;42.684;23.252;2022-09-02T06:14:38;10.32;;;9.52;;
11338;SDS011;5724;42.684;23.252;2022-09-02T06:17:03;9.98;;;9.38;;
11338;SDS011;5724;42.684;23.252;2022-09-02T06:19:29;11.23;;;10.23;;
11338;SDS011;5724;42.684;23.252;2022-09-02T06:21:57;10.25;;;9.10;;
11338;SDS011;5724;42.684;23.252;2022-09-02T06:24:24;10.27;;;9.68;;
11338;SDS011;5724;42.684;23.252;2022-09-02T06:26:51;11.10;;;10.15;;
11338;SDS011;5724;42.684;23.252;2022-09-02T06:29:18;9.65;;;9.05;;
11338;SDS011;5724;42.684;23.252;2022-09-02T06:31:45;10.07;;;8.95;;
11338;SDS011;5724;42.684;23.252;2022-09-02T06:34:12;10.80;;;10.10;;
11338;SDS011;5724;42.684;23.252;2022-09-02T06:36:40;10.75;;;9.82;;
11338;SDS011;5724;42.684;23.252;2022-09-02T06:39:08;9.90;;;9.07;;
11338;SDS011;5724;42.684;23.252;2022-09-02T06:41:36;11.05;;;9.77;;
11338;SDS011;5724;42.684;23.252;2022-09-02T06:44:03;10.18;;;9.57;;
11338;SDS011;5724;42.684;23.252;2022-09-02T06:46:31;10.23;;;9.57;;
11338;SDS011;5724;42.684;23.252;2022-09-02T06:49:00;9.20;;;8.70;;
11338;SDS011;5724;42.684;23.252;2022-09-02T06:51:30;9.25;;;8.65;;
11338;SDS011;5724;42.684;23.252;2022-09-02T06:53:58;9.00;;;8.30;;
11338;SDS011;5724;42.684;23.252;2022-09-02T06:56:24;8.90;;;8.20;;
11338;SDS011;5724;42.684;23.252;2022-09-02T06:58:50;9.15;;;8.00;;
11338;SDS011;5724;42.684;23.252;2022-09-02T07:01:20;8.30;;;7.60;;
11338;SDS011;5724;42.684;23.252;2022-09-02T07:03:51;8.00;;;7.50;;
11338;SDS011;5724;42.684;23.252;2022-09-02T07:06:37;8.50;;;7.78;;
11338;SDS011;5724;42.684;23.252;2022-09-02T07:09:08;10.27;;;7.72;;
11338;SDS011;5724;42.684;23.252;2022-09-02T07:11:35;8.18;;;7.63;;
11338;SDS011;5724;42.684;23.252;2022-09-02T07:14:01;8.73;;;8.05;;
11338;SDS011;5724;42.684;23.252;2022-09-02T07:16:28;9.75;;;8.82;;
11338;SDS011;5724;42.684;23.252;2022-09-02T07:18:56;8.25;;;7.65;;
11338;SDS011;5724;42.684;23.252;2022-09-02T07:21:22;7.57;;;6.85;;
11338;SDS011;5724;42.684;23.252;2022-09-02T07:23:48;8.27;;;7.47;;
11338;SDS011;5724;42.684;23.252;2022-09-02T07:26:14;7.78;;;7.18;;
11338;SDS011;5724;42.684;23.252;2022-09-02T07:28:41;8.23;;;7.72;;
11338;SDS011;5724;42.684;23.252;2022-09-02T07:31:10;8.13;;;7.45;;
11338;SDS011;5724;42.684;23.252;2022-09-02T07:33:37;8.60;;;7.70;;
11338;SDS011;5724;42.684;23.252;2022-09-02T07:36:06;8.63;;;7.82;;
11338;SDS011;5724;42.684;23.252;2022-09-02T07:38:34;7.95;;;7.45;;
11338;SDS011;5724;42.684;23.252;2022-09-02T07:41:00;7.68;;;7.05;;
11338;SDS011;5724;42.684;23.252;2022-09-02T07:43:26;7.47;;;6.97;;
11338;SDS011;5724;42.684;23.252;2022-09-02T07:45:53;19.58;;;7.40;;
11338;SDS011;5724;42.684;23.252;2022-09-02T07:48:20;7.57;;;7.07;;
11338;SDS011;5724;42.684;23.252;2022-09-02T07:50:46;7.32;;;6.93;;
11338;SDS011;5724;42.684;23.252;2022-09-02T07:53:12;8.48;;;7.90;;
11338;SDS011;5724;42.684;23.252;2022-09-02T07:55:40;10.00;;;9.23;;
11338;SDS011;5724;42.684;23.252;2022-09-02T07:58:07;8.15;;;7.30;;
11338;SDS011;5724;42.684;23.252;2022-09-02T08:00:33;8.13;;;7.65;;
11338;SDS011;5724;42.684;23.252;2022-09-02T08:02:59;8.27;;;7.72;;
11338;SDS011;5724;42.684;23.252;2022-09-02T08:05:26;7.72;;;7.25;;
11338;SDS011;5724;42.684;23.252;2022-09-02T08:07:51;8.27;;;7.70;;
11338;SDS011;5724;42.684;23.252;2022-09-02T08:10:17;8.07;;;7.60;;
11338;SDS011;5724;42.684;23.252;2022-09-02T08:12:46;8.10;;;7.68;;
11338;SDS011;5724;42.684;23.252;2022-09-02T08:15:12;8.25;;;7.85;;
11338;SDS011;5724;42.684;23.252;2022-09-02T08:17:38;8.70;;;7.90;;
11338;SDS011;5724;42.684;23.252;2022-09-02T08:20:08;8.68;;;8.05;;
11338;SDS011;5724;42.684;23.252;2022-09-02T08:22:36;8.50;;;7.97;;
11338;SDS011;5724;42.684;23.252;2022-09-02T08:25:02;7.93;;;7.43;;
11338;SDS011;5724;42.684;23.252;2022-09-02T08:27:28;8.02;;;7.63;;
11338;SDS011;5724;42.684;23.252;2022-09-02T08:29:54;8.90;;;8.00;;
11338;SDS011;5724;42.684;23.252;2022-09-02T08:32:19;8.57;;;8.02;;
11338;SDS011;5724;42.684;23.252;2022-09-02T08:34:45;8.25;;;7.85;;
11338;SDS011;5724;42.684;23.252;2022-09-02T08:37:10;8.82;;;8.05;;
11338;SDS011;5724;42.684;23.252;2022-09-02T08:39:36;8.43;;;7.88;;
11338;SDS011;5724;42.684;23.252;2022-09-02T08:42:18;9.07;;;8.48;;
11338;SDS011;5724;42.684;23.252;2022-09-02T08:44:48;8.57;;;8.00;;
11338;SDS011;5724;42.684;23.252;2022-09-02T08:47:21;8.77;;;8.13;;
11338;SDS011;5724;42.684;23.252;2022-09-02T08:49:54;8.65;;;8.15;;
11338;SDS011;5724;42.684;23.252;2022-09-02T08:52:27;8.10;;;7.50;;
11338;SDS011;5724;42.684;23.252;2022-09-02T08:55:06;7.97;;;7.45;;
11338;SDS011;5724;42.684;23.252;2022-09-02T08:57:37;8.18;;;7.57;;
11338;SDS011;5724;42.684;23.252;2022-09-02T09:00:03;8.77;;;8.07;;
11338;SDS011;5724;42.684;23.252;2022-09-02T09:02:38;9.45;;;8.50;;
11338;SDS011;5724;42.684;23.252;2022-09-02T09:05:37;8.40;;;7.95;;
11338;SDS011;5724;42.684;23.252;2022-09-02T09:08:29;10.02;;;7.82;;
11338;SDS011;5724;42.684;23.252;2022-09-02T09:17:27;8.73;;;8.27;;
11338;SDS011;5724;42.684;23.252;2022-09-02T09:19:54;9.15;;;8.55;;
11338;SDS011;5724;42.684;23.252;2022-09-02T09:22:34;8.55;;;7.82;;
11338;SDS011;5724;42.684;23.252;2022-09-02T09:25:08;8.35;;;7.78;;
11338;SDS011;5724;42.684;23.252;2022-09-02T09:27:36;9.85;;;8.15;;
11338;SDS011;5724;42.684;23.252;2022-09-02T09:30:01;10.27;;;9.50;;
11338;SDS011;5724;42.684;23.252;2022-09-02T09:32:32;9.02;;;8.40;;
11338;SDS011;5724;42.684;23.252;2022-09-02T09:35:01;9.63;;;8.90;;
11338;SDS011;5724;42.684;23.252;2022-09-02T09:42:42;9.02;;;8.40;;
11338;SDS011;5724;42.684;23.252;2022-09-02T09:45:16;9.65;;;9.05;;
11338;SDS011;5724;42.684;23.252;2022-09-02T09:47:45;10.52;;;9.82;;
11338;SDS011;5724;42.684;23.252;2022-09-02T09:50:29;9.85;;;9.15;;
11338;SDS011;5724;42.684;23.252;2022-09-02T09:53:09;9.60;;;8.98;;
11338;SDS011;5724;42.684;23.252;2022-09-02T09:55:54;9.20;;;8.52;;
11338;SDS011;5724;42.684;23.252;2022-09-02T10:01:21;13.13;;;12.25;;
11338;SDS011;5724;42.684;23.252;2022-09-02T10:08:57;14.75;;;13.63;;
11338;SDS011;5724;42.684;23.252;2022-09-02T10:11:28;14.80;;;13.50;;
11338;SDS011;5724;42.684;23.252;2022-09-02T10:13:59;14.27;;;13.23;;
11338;SDS011;5724;42.684;23.252;2022-09-02T10:16:35;13.88;;;12.77;;
11338;SDS011;5724;42.684;23.252;2022-09-02T10:19:22;13.50;;;12.43;;
11338;SDS011;5724;42.684;23.252;2022-09-02T10:30:21;12.70;;;11.70;;
11338;SDS011;5724;42.684;23.252;2022-09-02T10:35:42;11.48;;;10.75;;
11338;SDS011;5724;42.684;23.252;2022-09-02T10:46:20;14.10;;;12.95;;
11338;SDS011;5724;42.684;23.252;2022-09-02T10:49:00;13.55;;;12.57;;
11338;SDS011;5724;42.684;23.252;2022-09-02T10:57:25;13.75;;;12.75;;
11338;SDS011;5724;42.684;23.252;2022-09-02T11:00:05;12.98;;;12.07;;
11338;SDS011;5724;42.684;23.252;2022-09-02T11:02:43;13.45;;;12.48;;
11338;SDS011;5724;42.684;23.252;2022-09-02T11:05:33;14.55;;;13.25;;
11338;SDS011;5724;42.684;23.252;2022-09-02T11:08:13;13.65;;;12.48;;
11338;SDS011;5724;42.684;23.252;2022-09-02T11:11:04;14.43;;;12.98;;
11338;SDS011;5724;42.684;23.252;2022-09-02T11:13:36;13.52;;;12.23;;
11338;SDS011;5724;42.684;23.252;2022-09-02T11:16:13;13.02;;;11.93;;
11338;SDS011;5724;42.684;23.252;2022-09-02T11:29:30;13.30;;;12.38;;
11338;SDS011;5724;42.684;23.252;2022-09-02T11:32:08;13.93;;;12.60;;
11338;SDS011;5724;42.684;23.252;2022-09-02T11:34:51;14.27;;;12.77;;
11338;SDS011;5724;42.684;23.252;2022-09-02T11:37:33;13.85;;;12.93;;
11338;SDS011;5724;42.684;23.252;2022-09-02T11:54:37;13.50;;;12.20;;
11338;SDS011;5724;42.684;23.252;2022-09-02T11:57:06;12.25;;;11.35;;
11338;SDS011;5724;42.684;23.252;2022-09-02T12:03:17;14.38;;;13.35;;
11338;SDS011;5724;42.684;23.252;2022-09-02T12:07:58;14.35;;;13.15;;
11338;SDS011;5724;42.684;23.252;2022-09-02T12:13:11;13.27;;;12.23;;
11338;SDS011;5724;42.684;23.252;2022-09-02T12:21:17;14.07;;;12.77;;
11338;SDS011;5724;42.684;23.252;2022-09-02T12:26:13;14.00;;;12.95;;
11338;SDS011;5724;42.684;23.252;2022-09-02T12:28:41;14.23;;;12.70;;
11338;SDS011;5724;42.684;23.252;2022-09-02T12:31:55;13.18;;;12.20;;
11338;SDS011;5724;42.684;23.252;2022-09-02T12:47:22;13.73;;;12.63;;
11338;SDS011;5724;42.684;23.252;2022-09-02T12:53:17;13.95;;;12.95;;
11338;SDS011;5724;42.684;23.252;2022-09-02T12:58:34;15.15;;;13.98;;
11338;SDS011;5724;42.684;23.252;2022-09-02T13:01:11;15.25;;;13.90;;
11338;SDS011;5724;42.684;23.252;2022-09-02T13:03:56;13.90;;;12.70;;
11338;SDS011;5724;42.684;23.252;2022-09-02T13:29:26;17.05;;;15.57;;
11338;SDS011;5724;42.684;23.252;2022-09-02T13:34:39;18.80;;;17.10;;
11338;SDS011;5724;42.684;23.252;2022-09-02T13:37:25;19.40;;;17.80;;
11338;SDS011;5724;42.684;23.252;2022-09-02T13:39:55;21.60;;;19.42;;
11338;SDS011;5724;42.684;23.252;2022-09-02T13:42:22;19.25;;;17.65;;
11338;SDS011;5724;42.684;23.252;2022-09-02T13:44:50;22.00;;;19.42;;
11338;SDS011;5724;42.684;23.252;2022-09-02T13:47:16;21.42;;;19.13;;
11338;SDS011;5724;42.684;23.252;2022-09-02T13:49:46;19.88;;;18.15;;
11338;SDS011;5724;42.684;23.252;2022-09-02T13:52:20;19.20;;;17.33;;
11338;SDS011;5724;42.684;23.252;2022-09-02T13:54:54;20.15;;;18.52;;
11338;SDS011;5724;42.684;23.252;2022-09-02T13:57:25;20.20;;;18.35;;
11338;SDS011;5724;42.684;23.252;2022-09-02T13:59:54;19.92;;;18.30;;
11338;SDS011;5724;42.684;23.252;2022-09-02T14:02:38;21.17;;;19.33;;
11338;SDS011;5724;42.684;23.252;2022-09-02T14:07:43;22.30;;;20.40;;
11338;SDS011;5724;42.684;23.252;2022-09-02T14:10:14;23.48;;;21.50;;
11338;SDS011;5724;42.684;23.252;2022-09-02T14:12:42;20.70;;;18.90;;
11338;SDS011;5724;42.684;23.252;2022-09-02T14:15:10;22.77;;;20.83;;
11338;SDS011;5724;42.684;23.252;2022-09-02T14:17:39;22.23;;;20.23;;
11338;SDS011;5724;42.684;23.252;2022-09-02T14:22:51;23.98;;;21.90;;
11338;SDS011;5724;42.684;23.252;2022-09-02T14:25:18;26.55;;;24.27;;
11338;SDS011;5724;42.684;23.252;2022-09-02T14:27:51;26.50;;;24.15;;
11338;SDS011;5724;42.684;23.252;2022-09-02T14:33:18;23.90;;;21.65;;
11338;SDS011;5724;42.684;23.252;2022-09-02T14:36:00;34.88;;;31.45;;
11338;SDS011;5724;42.684;23.252;2022-09-02T14:38:48;25.83;;;23.65;;
11338;SDS011;5724;42.684;23.252;2022-09-02T14:41:33;23.95;;;21.95;;
11338;SDS011;5724;42.684;23.252;2022-09-02T14:44:09;23.63;;;21.52;;
11338;SDS011;5724;42.684;23.252;2022-09-02T14:46:42;23.50;;;21.40;;
11338;SDS011;5724;42.684;23.252;2022-09-02T14:49:17;21.23;;;19.52;;
11338;SDS011;5724;42.684;23.252;2022-09-02T14:51:54;19.65;;;18.17;;
11338;SDS011;5724;42.684;23.252;2022-09-02T14:57:05;19.83;;;18.17;;
11338;SDS011;5724;42.684;23.252;2022-09-02T14:59:44;18.98;;;17.58;;
11338;SDS011;5724;42.684;23.252;2022-09-02T15:02:19;19.08;;;17.60;;
11338;SDS011;5724;42.684;23.252;2022-09-02T15:04:57;18.15;;;16.85;;
11338;SDS011;5724;42.684;23.252;2022-09-02T15:07:24;19.17;;;17.65;;
11338;SDS011;5724;42.684;23.252;2022-09-02T15:09:50;18.63;;;17.33;;
11338;SDS011;5724;42.684;23.252;2022-09-02T15:12:17;19.33;;;17.80;;
11338;SDS011;5724;42.684;23.252;2022-09-02T15:14:44;20.73;;;18.83;;
11338;SDS011;5724;42.684;23.252;2022-09-02T15:17:11;19.15;;;17.63;;
11338;SDS011;5724;42.684;23.252;2022-09-02T15:19:39;19.48;;;18.02;;
11338;SDS011;5724;42.684;23.252;2022-09-02T15:22:04;19.27;;;17.92;;
11338;SDS011;5724;42.684;23.252;2022-09-02T15:24:30;20.30;;;18.55;;
11338;SDS011;5724;42.684;23.252;2022-09-02T15:26:55;21.15;;;19.42;;
11338;SDS011;5724;42.684;23.252;2022-09-02T15:29:21;20.63;;;19.02;;
11338;SDS011;5724;42.684;23.252;2022-09-02T15:31:49;23.67;;;21.48;;
11338;SDS011;5724;42.684;23.252;2022-09-02T15:34:15;21.63;;;19.80;;
11338;SDS011;5724;42.684;23.252;2022-09-02T15:36:41;20.30;;;18.75;;
11338;SDS011;5724;42.684;23.252;2022-09-02T15:39:07;22.05;;;20.25;;
11338;SDS011;5724;42.684;23.252;2022-09-02T15:41:32;22.27;;;20.48;;
11338;SDS011;5724;42.684;23.252;2022-09-02T15:43:59;23.02;;;21.15;;
11338;SDS011;5724;42.684;23.252;2022-09-02T15:46:25;23.02;;;20.92;;
11338;SDS011;5724;42.684;23.252;2022-09-02T15:48:53;23.23;;;21.23;;
11338;SDS011;5724;42.684;23.252;2022-09-02T15:51:21;29.80;;;26.98;;
11338;SDS011;5724;42.684;23.252;2022-09-02T15:54:07;22.95;;;20.58;;
11338;SDS011;5724;42.684;23.252;2022-09-02T15:56:35;20.70;;;18.92;;
11338;SDS011;5724;42.684;23.252;2022-09-02T15:59:03;19.92;;;18.23;;
11338;SDS011;5724;42.684;23.252;2022-09-02T16:01:34;18.27;;;16.58;;
11338;SDS011;5724;42.684;23.252;2022-09-02T16:04:02;18.25;;;16.58;;
11338;SDS011;5724;42.684;23.252;2022-09-02T16:06:29;17.65;;;16.17;;
11338;SDS011;5724;42.684;23.252;2022-09-02T16:08:57;14.90;;;13.75;;
11338;SDS011;5724;42.684;23.252;2022-09-02T16:11:23;14.65;;;13.60;;
11338;SDS011;5724;42.684;23.252;2022-09-02T16:13:49;12.57;;;11.40;;
11338;SDS011;5724;42.684;23.252;2022-09-02T16:16:15;12.07;;;11.20;;
11338;SDS011;5724;42.684;23.252;2022-09-02T16:18:41;10.70;;;10.10;;
11338;SDS011;5724;42.684;23.252;2022-09-02T16:21:07;11.18;;;10.13;;
11338;SDS011;5724;42.684;23.252;2022-09-02T16:23:35;10.32;;;9.73;;
11338;SDS011;5724;42.684;23.252;2022-09-02T16:28:52;8.25;;;7.75;;
11338;SDS011;5724;42.684;23.252;2022-09-02T16:31:20;7.10;;;6.70;;
11338;SDS011;5724;42.684;23.252;2022-09-02T16:36:16;6.25;;;5.95;;
11338;SDS011;5724;42.684;23.252;2022-09-02T16:38:42;6.07;;;5.60;;
11338;SDS011;5724;42.684;23.252;2022-09-02T16:41:08;6.60;;;6.30;;
11338;SDS011;5724;42.684;23.252;2022-09-02T16:43:46;6.90;;;6.38;;
11338;SDS011;5724;42.684;23.252;2022-09-02T16:46:12;7.20;;;6.82;;
11338;SDS011;5724;42.684;23.252;2022-09-02T16:48:37;6.65;;;6.15;;
11338;SDS011;5724;42.684;23.252;2022-09-02T16:51:03;6.55;;;5.90;;
11338;SDS011;5724;42.684;23.252;2022-09-02T16:53:29;6.95;;;6.38;;
11338;SDS011;5724;42.684;23.252;2022-09-02T16:55:55;7.18;;;6.78;;
11338;SDS011;5724;42.684;23.252;2022-09-02T16:58:21;7.80;;;7.30;;
11338;SDS011;5724;42.684;23.252;2022-09-02T17:00:47;8.10;;;7.50;;
11338;SDS011;5724;42.684;23.252;2022-09-02T17:03:12;8.35;;;7.85;;
11338;SDS011;5724;42.684;23.252;2022-09-02T17:05:38;7.70;;;7.30;;
11338;SDS011;5724;42.684;23.252;2022-09-02T17:08:04;8.13;;;7.63;;
11338;SDS011;5724;42.684;23.252;2022-09-02T17:10:31;8.20;;;7.70;;
11338;SDS011;5724;42.684;23.252;2022-09-02T17:12:58;9.85;;;9.13;;